MOUNT RAINIER
GEOLOGY & WEATHER
Hello guest! [ Log In ]
morageology.com Water Data for Chinook Pass Summit at Mount Rainier National Park

Chinook Pass Summit at Mount Rainier National Park

Date Range to view:
 
[ Graphical View | Weather History ]

View this data in a CSV Format

GMT Date/Time Local Date/Time Air Temperature (°C) Dew Point Temperature (°C) Relative Humidity (%) Wind Direction (°) Wind Speed (mph) Wind Gust Speed (mph) Battery (V)
2023-11-29 08:00:00 2023-11-29 00:00:00 -2.0111 -13.1878 42.1 169 3.72 6.69 12.7
2023-11-29 09:00:00 2023-11-29 01:00:00 -2.2722 -12.9685 43.7 179 2.38 4.93 12.7
2023-11-29 10:00:00 2023-11-29 02:00:00 -2.2278 -13.6682 41.2 151 3.67 7.33 12.7
2023-11-29 11:00:00 2023-11-29 03:00:00 -2.6000 -13.5669 42.7 139 3.03 5.13 12.6
2023-11-29 12:00:00 2023-11-29 04:00:00 -2.8611 -13.3191 44.4 146 3.06 5.51 12.6
2023-11-29 13:00:00 2023-11-29 05:00:00 -3.1222 -12.3244 49.1 116 4.13 7.40 12.6
2023-11-29 14:00:00 2023-11-29 06:00:00 -3.2667 -11.5070 53.0 109 4.83 8.65 12.6
2023-11-29 15:00:00 2023-11-29 07:00:00 -3.2611 -10.7785 56.1 104 3.15 6.25 12.6
2023-11-29 16:00:00 2023-11-29 08:00:00 -3.3389 -10.3403 58.4 117 1.75 4.05 12.6
2023-11-29 17:00:00 2023-11-29 09:00:00 -2.4111 -10.1837 55.2 106 1.92 3.75 13.7
2023-11-29 18:00:00 2023-11-29 10:00:00 -0.2722 -10.1374 47.4 103 0.76 2.60 13.7
2023-11-29 19:00:00 2023-11-29 11:00:00 -2.6444 -10.5657 54.5 252 0.50 1.76 13.6
2023-11-29 20:00:00 2023-11-29 12:00:00 -2.9167 -10.2165 57.2 217 1.10 2.70 13.5
2023-11-29 21:00:00 2023-11-29 13:00:00 -3.1833 -10.0858 58.9 260 1.34 3.55 13.3
2023-11-29 22:00:00 2023-11-29 14:00:00 -3.6111 -10.0110 61.2 280 1.68 2.94 13.2
2023-11-29 23:00:00 2023-11-29 15:00:00 -3.9833 -10.0672 62.6 281 1.83 3.98 13.0
2023-11-30 00:00:00 2023-11-29 16:00:00 -3.7444 -9.6031 63.8 323 2.04 4.86 12.9
2023-11-30 01:00:00 2023-11-29 17:00:00 -3.6556 -9.7032 62.9 332 2.51 4.83 12.8
2023-11-30 02:00:00 2023-11-29 18:00:00 -3.7278 -9.7375 63.1 296 3.87 6.62 12.8
2023-11-30 03:00:00 2023-11-29 19:00:00 -4.6889 -9.3145 70.1 222 4.07 9.76 12.7
2023-11-30 04:00:00 2023-11-29 20:00:00 -4.6444 -8.9709 71.7 179 3.09 8.14 12.7
2023-11-30 05:00:00 2023-11-29 21:00:00 -4.5778 -8.8230 72.2 177 3.29 7.70 12.7
2023-11-30 06:00:00 2023-11-29 22:00:00 -5.2333 -8.4212 78.3 183 4.28 8.61 12.6
2023-11-30 07:00:00 2023-11-29 23:00:00 -5.1667 -8.3925 78.1 184 3.82 7.43 12.6
2023-11-30 08:00:00 2023-11-30 00:00:00 -5.1222 -8.4534 77.4 278 2.47 5.57 12.6
2023-11-30 09:00:00 2023-11-30 01:00:00 -4.9167 -7.8407 80.0 290 3.79 8.68 12.6
2023-11-30 10:00:00 2023-11-30 02:00:00 -5.2111 -6.9465 87.6 206 1.90 5.54 12.6
2023-11-30 11:00:00 2023-11-30 03:00:00 -5.3556 -6.3652 92.6 227 1.53 6.45 12.6
2023-11-30 12:00:00 2023-11-30 04:00:00 -5.5778 -6.0867 96.2 152 5.84 11.18 12.6
2023-11-30 13:00:00 2023-11-30 05:00:00 -5.6611 -6.2653 95.5 152 7.23 10.74 12.6
2023-11-30 14:00:00 2023-11-30 06:00:00 -5.5389 -6.1849 95.2 157 8.08 11.28 12.6
2023-11-30 15:00:00 2023-11-30 07:00:00 -5.3778 -6.0522 95.0 159 8.56 10.88 12.6
2023-11-30 16:00:00 2023-11-30 08:00:00 -5.1444 -5.8202 95.0 135 5.80 9.59 12.6
2023-11-30 17:00:00 2023-11-30 09:00:00 -5.0389 -5.7152 95.0 139 6.61 10.37 12.6
2023-11-30 18:00:00 2023-11-30 10:00:00 -4.8222 -5.4859 95.1 120 3.93 6.76 12.6
2023-11-30 19:00:00 2023-11-30 11:00:00 -4.6389 -5.2898 95.2 152 5.84 10.03 12.6
2023-11-30 20:00:00 2023-11-30 12:00:00 -4.7833 -5.4611 95.0 146 9.19 14.73 12.7
2023-11-30 21:00:00 2023-11-30 13:00:00 -5.1944 -5.9253 94.6 141 9.22 17.50 12.9
2023-11-30 22:00:00 2023-11-30 14:00:00 -5.2222 -5.9529 94.6 153 6.87 14.02 13.0
2023-11-30 23:00:00 2023-11-30 15:00:00 -5.8722 -6.7375 93.6 135 3.98 9.46 12.8
2023-12-01 00:00:00 2023-11-30 16:00:00 -6.8278 -7.7138 93.4 98 5.53 9.59 12.7
2023-12-01 01:00:00 2023-11-30 17:00:00 -5.7389 -6.4664 94.6 137 4.68 11.69 12.6
2023-12-01 02:00:00 2023-11-30 18:00:00 -5.5611 -6.3452 94.2 174 7.23 13.55 12.6
2023-12-01 03:00:00 2023-11-30 19:00:00 -5.9333 -6.7426 94.0 178 6.35 10.20 12.6
2023-12-01 04:00:00 2023-11-30 20:00:00 -6.2556 -7.1181 93.6 179 5.52 9.05 12.6
2023-12-01 05:00:00 2023-11-30 21:00:00 -6.3278 -7.1759 93.7 182 4.82 8.14 12.6
2023-12-01 06:00:00 2023-11-30 22:00:00 -6.6167 -7.5182 93.3 193 3.72 6.83 12.6
2023-12-01 07:00:00 2023-11-30 23:00:00 -6.5833 -7.4712 93.4 211 1.49 5.41 12.6
2023-12-01 08:00:00 2023-12-01 00:00:00 -6.7833 -7.7252 93.0 206 1.25 3.45 12.6
2023-12-01 09:00:00 2023-12-01 01:00:00 -6.7944 -7.7084 93.2 217 2.13 6.35 12.6
2023-12-01 10:00:00 2023-12-01 02:00:00 -6.6389 -7.5680 93.1 229 1.59 5.78 12.6
2023-12-01 11:00:00 2023-12-01 03:00:00 -6.6000 -7.5155 93.2 194 0.94 3.89 12.6
2023-12-01 12:00:00 2023-12-01 04:00:00 -6.5611 -7.4630 93.3 148 1.64 6.96 12.6
2023-12-01 13:00:00 2023-12-01 05:00:00 -6.1500 -6.9855 93.8 255 1.13 8.45 12.6
2023-12-01 14:00:00 2023-12-01 06:00:00 -5.9500 -6.7592 94.0 232 2.48 9.02 12.6
2023-12-01 15:00:00 2023-12-01 07:00:00 -5.8556 -6.6932 93.8 210 1.88 6.05 12.6
2023-12-01 16:00:00 2023-12-01 08:00:00 -5.7944 -6.5908 94.1 236 5.20 11.82 12.6
2023-12-01 17:00:00 2023-12-01 09:00:00 -5.8611 -6.6848 93.9 227 4.08 9.02 12.6
2023-12-01 18:00:00 2023-12-01 10:00:00 -5.8833 -6.7069 93.9 250 1.95 7.23 12.6
2023-12-01 19:00:00 2023-12-01 11:00:00 -5.7611 -6.5716 94.0 221 1.52 3.48 12.6
2023-12-01 20:00:00 2023-12-01 12:00:00 -5.6833 -6.5222 93.8 236 2.18 6.18 12.6
2023-12-01 21:00:00 2023-12-01 13:00:00 -5.4222 -6.1655 94.5 275 4.25 10.98 12.6
2023-12-01 22:00:00 2023-12-01 14:00:00 -5.4556 -6.1848 94.6 279 4.93 10.27 12.6
2023-12-01 23:00:00 2023-12-01 15:00:00 -5.3500 -6.1215 94.3 278 4.44 8.85 12.6
2023-12-02 00:00:00 2023-12-01 16:00:00 -5.6889 -6.5835 93.4 279 3.66 8.01 12.6
2023-12-02 01:00:00 2023-12-01 17:00:00 -5.5556 -6.3119 94.4 245 2.00 6.96 12.6
2023-12-02 02:00:00 2023-12-01 18:00:00 -5.6167 -6.3726 94.4 227 2.63 6.45 12.6
2023-12-02 03:00:00 2023-12-01 19:00:00 -5.6778 -6.4472 94.3 221 2.30 6.35 12.6
2023-12-02 04:00:00 2023-12-01 20:00:00 -5.3889 -6.1186 94.6 226 3.96 9.73 12.5
2023-12-02 05:00:00 2023-12-01 21:00:00 -5.4722 -6.2014 94.6 222 3.28 9.02 12.5
2023-12-02 06:00:00 2023-12-01 22:00:00 -5.1056 -5.8092 94.8 211 3.95 6.96 12.5
2023-12-02 07:00:00 2023-12-01 23:00:00 -4.9778 -5.6683 94.9 209 3.30 7.80 12.5
2023-12-02 08:00:00 2023-12-02 00:00:00 -4.6333 -5.2704 95.3 220 4.31 9.76 12.5
2023-12-02 09:00:00 2023-12-02 01:00:00 -4.4667 -5.0769 95.5 208 2.88 13.17 12.5
2023-12-02 10:00:00 2023-12-02 02:00:00 -4.1278 -4.6705 96.0 245 2.93 10.67 12.5
2023-12-02 11:00:00 2023-12-02 03:00:00 -3.9222 -4.4244 96.3 249 5.85 12.87 12.5
2023-12-02 12:00:00 2023-12-02 04:00:00 -3.8389 -4.3276 96.4 239 6.22 11.42 12.5
2023-12-02 13:00:00 2023-12-02 05:00:00 -3.6000 -4.0621 96.6 232 4.91 28.34 12.5
2023-12-02 14:00:00 2023-12-02 06:00:00 -4.2556 -4.8115 95.9 229 8.32 24.35 12.5
2023-12-02 15:00:00 2023-12-02 07:00:00 -5.2611 -5.9916 94.6 253 8.07 24.49 12.5
2023-12-02 16:00:00 2023-12-02 08:00:00 -5.6333 -6.3892 94.4 283 6.87 21.35 12.5
2023-12-02 17:00:00 2023-12-02 09:00:00 -6.4722 -7.4445 92.8 281 6.16 16.08 12.6
2023-12-02 18:00:00 2023-12-02 10:00:00 -5.9556 -6.9601 92.6 281 7.14 16.28 12.8
2023-12-02 19:00:00 2023-12-02 11:00:00 -5.9944 -7.2967 90.5 279 8.22 14.36 13.0
2023-12-02 20:00:00 2023-12-02 12:00:00 -5.1000 -7.8051 81.3 274 8.60 14.36 13.2
2023-12-02 21:00:00 2023-12-02 13:00:00 -5.7944 -6.8850 92.0 281 12.42 22.19 13.3
2023-12-02 22:00:00 2023-12-02 14:00:00 -5.5333 -7.6392 85.1 288 13.89 30.97 13.0
2023-12-02 23:00:00 2023-12-02 15:00:00 -5.5889 -6.2897 94.8 279 13.09 21.82 12.9
2023-12-03 00:00:00 2023-12-02 16:00:00 -5.6278 -6.3837 94.4 262 10.82 21.45 12.8
2023-12-03 01:00:00 2023-12-02 17:00:00 -6.0778 -6.9138 93.8 253 8.03 15.03 12.7
2023-12-03 02:00:00 2023-12-02 18:00:00 -5.5556 -6.2842 94.6 225 12.77 20.78 12.7
2023-12-03 03:00:00 2023-12-02 19:00:00 -5.4611 -6.2042 94.5 230 11.55 20.50 12.6
2023-12-03 04:00:00 2023-12-02 20:00:00 -5.5889 -6.3589 94.3 210 10.31 16.96 12.6
2023-12-03 05:00:00 2023-12-02 21:00:00 -5.4611 -6.1903 94.6 196 9.10 14.29 12.6
2023-12-03 06:00:00 2023-12-02 22:00:00 -5.1111 -5.7871 95.0 185 9.63 13.61 12.6
2023-12-03 07:00:00 2023-12-02 23:00:00 -5.5444 -6.3147 94.3 178 8.62 14.36 12.5
2023-12-03 08:00:00 2023-12-03 00:00:00 -5.9556 -6.7509 94.1 146 6.33 9.59 12.5
2023-12-03 09:00:00 2023-12-03 01:00:00 -5.2778 -5.9528 95.0 132 4.40 9.39 12.5
2023-12-03 10:00:00 2023-12-03 02:00:00 -4.7444 -5.3671 95.4 121 3.66 6.99 12.5
2023-12-03 11:00:00 2023-12-03 03:00:00 -4.6167 -5.2261 95.5 95 3.71 7.47 12.5
2023-12-03 12:00:00 2023-12-03 04:00:00 -4.1278 -4.6567 96.1 95 4.33 7.43 12.5
2023-12-03 13:00:00 2023-12-03 05:00:00 -2.6444 -2.9717 97.6 105 4.04 9.12 12.5
2023-12-03 14:00:00 2023-12-03 06:00:00 -2.3389 -2.6118 98.0 107 3.39 7.70 12.5
2023-12-03 15:00:00 2023-12-03 07:00:00 -1.4556 -1.6199 98.8 172 1.53 4.36 12.5
2023-12-03 16:00:00 2023-12-03 08:00:00 -1.6167 -1.8084 98.6 167 1.16 2.97 12.5
2023-12-03 17:00:00 2023-12-03 09:00:00 -1.1944 -1.3316 99.0 181 1.04 2.36 12.5
2023-12-03 18:00:00 2023-12-03 10:00:00 -0.6389 -0.7214 99.4 179 1.01 2.09 12.5
2023-12-03 19:00:00 2023-12-03 11:00:00 0.7556 0.7139 99.7 188 9.87 34.77 12.6
2023-12-03 20:00:00 2023-12-03 12:00:00 1.1333 1.1055 99.8 225 19.09 38.21 12.7
2023-12-03 21:00:00 2023-12-03 13:00:00 0.9944 0.9248 99.5 223 18.79 34.77 13.0
2023-12-03 22:00:00 2023-12-03 14:00:00 1.5556 -1.8105 78.3 218 10.36 22.48 13.6
2023-12-03 23:00:00 2023-12-03 15:00:00 0.8167 -1.5962 83.9 203 6.72 13.40 13.3
2023-12-04 00:00:00 2023-12-03 16:00:00 -0.1500 -3.8472 76.1 176 6.57 14.41 12.9
2023-12-04 01:00:00 2023-12-03 17:00:00 -0.7667 -3.5377 81.5 182 6.76 15.70 12.8
2023-12-04 02:00:00 2023-12-03 18:00:00 -1.4111 -3.0042 88.9 167 7.54 13.91 12.7
2023-12-04 03:00:00 2023-12-03 19:00:00 -2.2111 -3.9904 87.6 178 6.25 16.54 12.7
2023-12-04 04:00:00 2023-12-03 20:00:00 -2.3944 -5.2262 80.9 193 7.41 12.87 12.6
2023-12-04 05:00:00 2023-12-03 21:00:00 -2.1389 -6.4038 72.6 198 8.83 14.86 12.6
2023-12-04 06:00:00 2023-12-03 22:00:00 -1.5556 -6.9338 66.8 203 9.70 18.03 12.6
2023-12-04 07:00:00 2023-12-03 23:00:00 -0.3889 -8.2812 55.2 210 5.99 15.26 12.6
2023-12-04 08:00:00 2023-12-04 00:00:00 -0.2833 -11.6141 42.2 197 8.12 15.70 12.5
2023-12-04 09:00:00 2023-12-04 01:00:00 -0.0889 -4.5216 72.1 202 10.73 20.46 12.5
2023-12-04 10:00:00 2023-12-04 02:00:00 -0.2500 -2.9178 82.2 192 6.88 16.04 12.5
2023-12-04 11:00:00 2023-12-04 03:00:00 -0.5333 -2.4459 86.9 155 3.51 7.80 12.5
2023-12-04 12:00:00 2023-12-04 04:00:00 0.1944 -2.8490 80.0 160 4.02 8.31 12.5
2023-12-04 13:00:00 2023-12-04 05:00:00 -0.1000 -0.8480 94.7 152 4.21 10.06 12.5
2023-12-04 14:00:00 2023-12-04 06:00:00 -0.2611 -0.4410 98.7 88 5.04 13.57 12.5
2023-12-04 15:00:00 2023-12-04 07:00:00 2.7556 2.1811 96.0 170 7.21 14.51 12.5
2023-12-04 16:00:00 2023-12-04 08:00:00 0.8889 0.8193 99.5 141 6.26 10.84 12.5
2023-12-04 17:00:00 2023-12-04 09:00:00 1.3778 1.3638 99.9 102 6.44 11.11 12.5
2023-12-04 18:00:00 2023-12-04 10:00:00 3.0389 3.0389 100.0 140 6.33 12.83 12.6
2023-12-04 19:00:00 2023-12-04 11:00:00 3.4611 3.4611 100.0 230 8.19 18.66 12.7
2023-12-04 20:00:00 2023-12-04 12:00:00 3.8556 3.8413 99.9 226 11.50 26.29 12.7
2023-12-04 21:00:00 2023-12-04 13:00:00 4.6389 4.1445 96.6 224 21.12 29.19 12.7
2023-12-04 22:00:00 2023-12-04 14:00:00 4.5833 4.2361 97.6 231 15.65 26.66 12.7
2023-12-04 23:00:00 2023-12-04 15:00:00 3.8833 3.1256 94.8 233 23.52 40.36 12.6
2023-12-05 00:00:00 2023-12-04 16:00:00 5.0056 4.6718 97.7 242 19.76 37.52 12.6
2023-12-05 01:00:00 2023-12-04 17:00:00 5.0444 4.9001 99.0 238 23.76 38.19 12.5
2023-12-05 02:00:00 2023-12-04 18:00:00 4.8222 4.8222 100.0 260 10.31 31.61 12.5
2023-12-05 03:00:00 2023-12-04 19:00:00 4.9611 4.9611 100.0 230 8.02 24.36 12.5
2023-12-05 04:00:00 2023-12-04 20:00:00 4.8667 4.8667 100.0 269 7.07 20.38 12.5
2023-12-05 05:00:00 2023-12-04 21:00:00 5.0111 5.0111 100.0 249 9.56 25.27 12.5
2023-12-05 06:00:00 2023-12-04 22:00:00 5.0111 5.0111 100.0 248 9.58 27.13 12.5
2023-12-05 07:00:00 2023-12-04 23:00:00 5.3000 5.3000 100.0 250 15.21 36.44 12.5
2023-12-05 08:00:00 2023-12-05 00:00:00 5.2500 5.2500 100.0 252 15.44 41.29 12.5
2023-12-05 09:00:00 2023-12-05 01:00:00 5.1389 5.1389 100.0 245 14.11 54.32 12.5
2023-12-05 10:00:00 2023-12-05 02:00:00 4.9500 4.9500 100.0 248 15.99 41.02 12.5
2023-12-05 11:00:00 2023-12-05 03:00:00 4.7667 4.7667 100.0 246 13.15 43.52 12.5
2023-12-05 12:00:00 2023-12-05 04:00:00 4.4889 4.4889 100.0 243 16.39 53.61 12.5
2023-12-05 13:00:00 2023-12-05 05:00:00 4.3389 4.3389 100.0 246 10.09 26.96 12.5
2023-12-05 14:00:00 2023-12-05 06:00:00 4.3222 4.3222 100.0 249 9.47 20.82 12.5
2023-12-05 15:00:00 2023-12-05 07:00:00 3.9222 3.9222 100.0 254 8.38 20.95 12.5
2023-12-05 16:00:00 2023-12-05 08:00:00 3.8278 3.8278 100.0 245 8.10 29.05 12.5
2023-12-05 17:00:00 2023-12-05 09:00:00 3.7111 3.7111 100.0 246 10.80 25.04 12.5
2023-12-05 18:00:00 2023-12-05 10:00:00 3.7722 3.7722 100.0 245 8.77 21.19 12.5
2023-12-05 19:00:00 2023-12-05 11:00:00 3.7389 3.7389 100.0 254 6.72 17.88 12.6
2023-12-05 20:00:00 2023-12-05 12:00:00 3.6556 3.6556 100.0 251 7.72 24.84 12.6
2023-12-05 21:00:00 2023-12-05 13:00:00 3.5722 3.5722 100.0 258 6.78 18.05 12.6
2023-12-05 22:00:00 2023-12-05 14:00:00 3.4667 3.4667 100.0 248 12.00 28.18 12.6
2023-12-05 23:00:00 2023-12-05 15:00:00 3.4944 3.4944 100.0 249 10.14 24.84 12.5
2023-12-06 00:00:00 2023-12-05 16:00:00 3.1167 3.1167 100.0 245 13.42 28.11 12.5
2023-12-06 01:00:00 2023-12-05 17:00:00 3.1444 3.1444 100.0 236 10.55 25.75 12.5
2023-12-06 02:00:00 2023-12-05 18:00:00 3.0000 3.0000 100.0 236 9.42 23.86 12.5
2023-12-06 03:00:00 2023-12-05 19:00:00 3.3111 3.3111 100.0 233 8.53 20.31 12.5
2023-12-06 04:00:00 2023-12-05 20:00:00 3.4111 3.4111 100.0 252 7.00 17.41 12.5
2023-12-06 05:00:00 2023-12-05 21:00:00 3.3667 3.3667 100.0 252 7.92 17.65 12.5
2023-12-06 06:00:00 2023-12-05 22:00:00 3.3444 3.3444 100.0 247 8.64 18.53 12.5
2023-12-06 07:00:00 2023-12-05 23:00:00 2.8944 2.8944 100.0 239 11.95 25.58 12.5